sensor_id;sensor_type;location;lat;lon;timestamp;pressure;altitude;pressure_sealevel;temperature
67599;BMP280;62026;39.230;9.122;2022-09-19T00:01:09;100928.09;;;23.79
67599;BMP280;62026;39.230;9.122;2022-09-19T00:03:41;100929.59;;;23.85
67599;BMP280;62026;39.230;9.122;2022-09-19T00:06:09;100905.00;;;23.73
67599;BMP280;62026;39.230;9.122;2022-09-19T00:08:37;100929.09;;;23.83
67599;BMP280;62026;39.230;9.122;2022-09-19T00:11:05;100926.19;;;23.80
67599;BMP280;62026;39.230;9.122;2022-09-19T00:13:33;100914.78;;;23.69
67599;BMP280;62026;39.230;9.122;2022-09-19T00:16:00;100927.59;;;23.77
67599;BMP280;62026;39.230;9.122;2022-09-19T00:18:26;100921.19;;;23.73
67599;BMP280;62026;39.230;9.122;2022-09-19T00:20:53;100924.38;;;23.75
67599;BMP280;62026;39.230;9.122;2022-09-19T00:23:19;100930.78;;;23.79
67599;BMP280;62026;39.230;9.122;2022-09-19T00:26:09;100913.16;;;23.68
67599;BMP280;62026;39.230;9.122;2022-09-19T00:28:36;100920.59;;;23.76
67599;BMP280;62026;39.230;9.122;2022-09-19T00:31:05;100910.34;;;23.78
67599;BMP280;62026;39.230;9.122;2022-09-19T00:33:33;100920.81;;;23.80
67599;BMP280;62026;39.230;9.122;2022-09-19T00:36:01;100919.72;;;23.81
67599;BMP280;62026;39.230;9.122;2022-09-19T00:38:30;100912.41;;;23.81
67599;BMP280;62026;39.230;9.122;2022-09-19T00:40:57;100915.72;;;23.78
67599;BMP280;62026;39.230;9.122;2022-09-19T00:43:42;100912.41;;;23.81
67599;BMP280;62026;39.230;9.122;2022-09-19T00:46:08;100905.22;;;23.77
67599;BMP280;62026;39.230;9.122;2022-09-19T00:48:35;100898.53;;;23.74
67599;BMP280;62026;39.230;9.122;2022-09-19T00:51:01;100908.50;;;23.74
67599;BMP280;62026;39.230;9.122;2022-09-19T00:53:29;100904.00;;;23.69
67599;BMP280;62026;39.230;9.122;2022-09-19T00:55:57;100908.28;;;23.70
67599;BMP280;62026;39.230;9.122;2022-09-19T00:58:32;100908.38;;;23.65
67599;BMP280;62026;39.230;9.122;2022-09-19T01:00:59;100883.63;;;23.49
67599;BMP280;62026;39.230;9.122;2022-09-19T01:03:26;100899.28;;;23.61
67599;BMP280;62026;39.230;9.122;2022-09-19T01:11:22;100891.56;;;23.54
67599;BMP280;62026;39.230;9.122;2022-09-19T01:16:46;100885.50;;;23.49
67599;BMP280;62026;39.230;9.122;2022-09-19T01:19:32;100881.59;;;23.41
67599;BMP280;62026;39.230;9.122;2022-09-19T01:25:11;100877.34;;;23.35
67599;BMP280;62026;39.230;9.122;2022-09-19T01:30:18;100868.00;;;23.33
67599;BMP280;62026;39.230;9.122;2022-09-19T01:32:49;100869.59;;;23.34
67599;BMP280;62026;39.230;9.122;2022-09-19T01:35:24;100869.59;;;23.34
67599;BMP280;62026;39.230;9.122;2022-09-19T01:38:07;100855.38;;;23.28
67599;BMP280;62026;39.230;9.122;2022-09-19T01:40:34;100861.56;;;23.29
67599;BMP280;62026;39.230;9.122;2022-09-19T01:43:04;100853.00;;;23.27
67599;BMP280;62026;39.230;9.122;2022-09-19T01:45:37;100851.41;;;23.26
67599;BMP280;62026;39.230;9.122;2022-09-19T01:48:18;100842.78;;;23.24
67599;BMP280;62026;39.230;9.122;2022-09-19T01:56:32;100826.00;;;23.13
67599;BMP280;62026;39.230;9.122;2022-09-19T02:07:49;100816.78;;;23.19
67599;BMP280;62026;39.230;9.122;2022-09-19T02:10:22;100811.56;;;23.23
67599;BMP280;62026;39.230;9.122;2022-09-19T02:12:54;100805.75;;;23.15
67599;BMP280;62026;39.230;9.122;2022-09-19T02:15:39;100793.09;;;23.16
67599;BMP280;62026;39.230;9.122;2022-09-19T02:18:13;100793.00;;;23.21
67599;BMP280;62026;39.230;9.122;2022-09-19T02:20:43;100777.09;;;23.06
67599;BMP280;62026;39.230;9.122;2022-09-19T02:23:23;100772.72;;;23.24
67599;BMP280;62026;39.230;9.122;2022-09-19T02:25:52;100776.22;;;23.24
67599;BMP280;62026;39.230;9.122;2022-09-19T02:28:22;100785.94;;;23.25
67599;BMP280;62026;39.230;9.122;2022-09-19T02:30:53;100773.34;;;23.21
67599;BMP280;62026;39.230;9.122;2022-09-19T02:33:20;100764.25;;;23.16
67599;BMP280;62026;39.230;9.122;2022-09-19T02:35:57;100754.59;;;23.15
67599;BMP280;62026;39.230;9.122;2022-09-19T02:41:44;100761.00;;;23.20
67599;BMP280;62026;39.230;9.122;2022-09-19T02:45:02;100751.78;;;23.07
67599;BMP280;62026;39.230;9.122;2022-09-19T02:47:51;100744.72;;;23.11
67599;BMP280;62026;39.230;9.122;2022-09-19T02:50:25;100744.41;;;23.12
67599;BMP280;62026;39.230;9.122;2022-09-19T02:52:54;100741.41;;;23.14
67599;BMP280;62026;39.230;9.122;2022-09-19T02:55:28;100727.34;;;23.03
67599;BMP280;62026;39.230;9.122;2022-09-19T02:57:58;100722.06;;;23.12
67599;BMP280;62026;39.230;9.122;2022-09-19T03:00:33;100726.16;;;23.09
67599;BMP280;62026;39.230;9.122;2022-09-19T03:03:13;100719.75;;;23.05
67599;BMP280;62026;39.230;9.122;2022-09-19T03:06:00;100707.00;;;22.97
67599;BMP280;62026;39.230;9.122;2022-09-19T03:08:30;100718.59;;;23.11
67599;BMP280;62026;39.230;9.122;2022-09-19T03:11:03;100705.88;;;22.98
67599;BMP280;62026;39.230;9.122;2022-09-19T03:13:35;100705.69;;;23.08
67599;BMP280;62026;39.230;9.122;2022-09-19T03:18:36;100704.72;;;23.04
67599;BMP280;62026;39.230;9.122;2022-09-19T03:21:07;100708.19;;;23.05
67599;BMP280;62026;39.230;9.122;2022-09-19T03:23:40;100710.00;;;23.09
67599;BMP280;62026;39.230;9.122;2022-09-19T03:26:13;100712.84;;;22.99
67599;BMP280;62026;39.230;9.122;2022-09-19T03:28:40;100708.09;;;22.96
67599;BMP280;62026;39.230;9.122;2022-09-19T03:31:06;100713.00;;;22.75
67599;BMP280;62026;39.230;9.122;2022-09-19T03:33:34;100703.47;;;22.51
67599;BMP280;62026;39.230;9.122;2022-09-19T03:36:03;100724.56;;;22.76
67599;BMP280;62026;39.230;9.122;2022-09-19T03:38:37;100715.25;;;22.87
67599;BMP280;62026;39.230;9.122;2022-09-19T03:41:06;100708.22;;;22.86
67599;BMP280;62026;39.230;9.122;2022-09-19T03:43:32;100711.44;;;22.88
67599;BMP280;62026;39.230;9.122;2022-09-19T03:45:58;100717.25;;;22.95
67599;BMP280;62026;39.230;9.122;2022-09-19T03:48:24;100712.28;;;23.02
67599;BMP280;62026;39.230;9.122;2022-09-19T03:50:53;100708.56;;;22.98
67599;BMP280;62026;39.230;9.122;2022-09-19T03:53:19;100714.47;;;23.00
67599;BMP280;62026;39.230;9.122;2022-09-19T03:55:46;100707.47;;;22.99
67599;BMP280;62026;39.230;9.122;2022-09-19T03:58:15;100715.06;;;22.97
67599;BMP280;62026;39.230;9.122;2022-09-19T04:00:42;100724.25;;;22.96
67599;BMP280;62026;39.230;9.122;2022-09-19T04:03:09;100709.63;;;22.84
67599;BMP280;62026;39.230;9.122;2022-09-19T04:05:36;100724.69;;;22.85
67599;BMP280;62026;39.230;9.122;2022-09-19T04:08:02;100729.75;;;22.86
67599;BMP280;62026;39.230;9.122;2022-09-19T04:10:29;100729.75;;;22.86
67599;BMP280;62026;39.230;9.122;2022-09-19T04:12:55;100730.00;;;22.90
67599;BMP280;62026;39.230;9.122;2022-09-19T04:15:22;100731.81;;;22.94
67599;BMP280;62026;39.230;9.122;2022-09-19T04:17:48;100736.16;;;22.90
67599;BMP280;62026;39.230;9.122;2022-09-19T04:20:17;100735.41;;;22.90
67599;BMP280;62026;39.230;9.122;2022-09-19T04:22:54;100737.28;;;22.89
67599;BMP280;62026;39.230;9.122;2022-09-19T04:25:40;100734.19;;;22.82
67599;BMP280;62026;39.230;9.122;2022-09-19T04:28:18;100740.44;;;22.77
67599;BMP280;62026;39.230;9.122;2022-09-19T04:30:46;100742.91;;;22.74
67599;BMP280;62026;39.230;9.122;2022-09-19T04:33:14;100738.63;;;22.73
67599;BMP280;62026;39.230;9.122;2022-09-19T04:35:41;100740.22;;;22.74
67599;BMP280;62026;39.230;9.122;2022-09-19T04:38:13;100747.78;;;22.72
67599;BMP280;62026;39.230;9.122;2022-09-19T04:40:46;100747.75;;;22.58
67599;BMP280;62026;39.230;9.122;2022-09-19T04:43:15;100745.25;;;22.62
67599;BMP280;62026;39.230;9.122;2022-09-19T04:45:46;100758.19;;;22.60
67599;BMP280;62026;39.230;9.122;2022-09-19T04:48:31;100759.22;;;22.64
67599;BMP280;62026;39.230;9.122;2022-09-19T04:50:58;100769.97;;;22.64
67599;BMP280;62026;39.230;9.122;2022-09-19T04:53:25;100756.97;;;22.52
67599;BMP280;62026;39.230;9.122;2022-09-19T04:55:57;100763.78;;;22.63
67599;BMP280;62026;39.230;9.122;2022-09-19T04:58:23;100766.25;;;22.60
67599;BMP280;62026;39.230;9.122;2022-09-19T05:00:51;100765.34;;;22.51
67599;BMP280;62026;39.230;9.122;2022-09-19T05:03:20;100769.13;;;22.50
67599;BMP280;62026;39.230;9.122;2022-09-19T05:05:52;100774.44;;;22.36
67599;BMP280;62026;39.230;9.122;2022-09-19T05:08:28;100777.84;;;22.42
67599;BMP280;62026;39.230;9.122;2022-09-19T05:11:00;100790.56;;;22.36
67599;BMP280;62026;39.230;9.122;2022-09-19T05:13:30;100786.78;;;22.37
67599;BMP280;62026;39.230;9.122;2022-09-19T05:15:57;100785.41;;;22.39
67599;BMP280;62026;39.230;9.122;2022-09-19T05:18:26;100780.03;;;22.21
67599;BMP280;62026;39.230;9.122;2022-09-19T05:20:53;100792.94;;;22.19
67599;BMP280;62026;39.230;9.122;2022-09-19T05:23:21;100794.44;;;22.06
67599;BMP280;62026;39.230;9.122;2022-09-19T05:25:49;100811.69;;;22.05
67599;BMP280;62026;39.230;9.122;2022-09-19T05:28:22;100793.00;;;21.90
67599;BMP280;62026;39.230;9.122;2022-09-19T05:30:53;100822.72;;;22.04
67599;BMP280;62026;39.230;9.122;2022-09-19T05:33:25;100818.16;;;22.04
67599;BMP280;62026;39.230;9.122;2022-09-19T05:35:57;100823.56;;;21.99
67599;BMP280;62026;39.230;9.122;2022-09-19T05:38:44;100825.66;;;22.02
67599;BMP280;62026;39.230;9.122;2022-09-19T05:41:34;100831.88;;;22.03
67599;BMP280;62026;39.230;9.122;2022-09-19T05:44:09;100823.56;;;21.99
67599;BMP280;62026;39.230;9.122;2022-09-19T05:46:36;100825.63;;;22.07
67599;BMP280;62026;39.230;9.122;2022-09-19T05:49:02;100825.25;;;22.14
67599;BMP280;62026;39.230;9.122;2022-09-19T05:51:28;100822.44;;;22.05
67599;BMP280;62026;39.230;9.122;2022-09-19T05:53:54;100813.84;;;22.03
67599;BMP280;62026;39.230;9.122;2022-09-19T05:56:40;100813.94;;;22.17
67599;BMP280;62026;39.230;9.122;2022-09-19T05:59:08;100825.94;;;22.24
67599;BMP280;62026;39.230;9.122;2022-09-19T06:01:36;100830.63;;;22.37
67599;BMP280;62026;39.230;9.122;2022-09-19T06:04:06;100835.41;;;22.40
67599;BMP280;62026;39.230;9.122;2022-09-19T06:06:37;100807.63;;;22.26
67599;BMP280;62026;39.230;9.122;2022-09-19T06:09:05;100827.91;;;22.37
67599;BMP280;62026;39.230;9.122;2022-09-19T06:11:36;100826.78;;;22.44
67599;BMP280;62026;39.230;9.122;2022-09-19T06:14:03;100832.09;;;22.49
67599;BMP280;62026;39.230;9.122;2022-09-19T06:16:51;100828.88;;;22.47
67599;BMP280;62026;39.230;9.122;2022-09-19T06:19:37;100817.59;;;22.45
67599;BMP280;62026;39.230;9.122;2022-09-19T06:22:10;100832.00;;;22.54
67599;BMP280;62026;39.230;9.122;2022-09-19T06:24:37;100827.13;;;22.56
67599;BMP280;62026;39.230;9.122;2022-09-19T06:27:05;100817.47;;;22.55
67599;BMP280;62026;39.230;9.122;2022-09-19T06:29:32;100834.00;;;22.67
67599;BMP280;62026;39.230;9.122;2022-09-19T06:32:21;100833.84;;;22.77
67599;BMP280;62026;39.230;9.122;2022-09-19T06:34:53;100824.09;;;22.81
67599;BMP280;62026;39.230;9.122;2022-09-19T06:37:19;100830.50;;;22.85
67599;BMP280;62026;39.230;9.122;2022-09-19T06:39:46;100833.19;;;22.85
67599;BMP280;62026;39.230;9.122;2022-09-19T06:42:39;100827.78;;;22.85
67599;BMP280;62026;39.230;9.122;2022-09-19T06:45:25;100819.22;;;23.15
67599;BMP280;62026;39.230;9.122;2022-09-19T06:48:06;100824.31;;;23.49
67599;BMP280;62026;39.230;9.122;2022-09-19T06:50:53;100816.09;;;23.54
67599;BMP280;62026;39.230;9.122;2022-09-19T06:53:21;100815.28;;;23.27
67599;BMP280;62026;39.230;9.122;2022-09-19T06:55:51;100816.44;;;23.21
67599;BMP280;62026;39.230;9.122;2022-09-19T06:58:21;100820.06;;;23.30
67599;BMP280;62026;39.230;9.122;2022-09-19T07:00:49;100824.38;;;23.31
67599;BMP280;62026;39.230;9.122;2022-09-19T07:03:17;100804.84;;;23.52
67599;BMP280;62026;39.230;9.122;2022-09-19T07:05:51;100826.03;;;23.86
67599;BMP280;62026;39.230;9.122;2022-09-19T07:08:22;100814.94;;;24.02
67599;BMP280;62026;39.230;9.122;2022-09-19T07:10:53;100820.03;;;23.89
67599;BMP280;62026;39.230;9.122;2022-09-19T07:13:20;100823.03;;;23.88
67599;BMP280;62026;39.230;9.122;2022-09-19T07:15:53;100834.63;;;23.88
67599;BMP280;62026;39.230;9.122;2022-09-19T07:18:19;100825.50;;;23.98
67599;BMP280;62026;39.230;9.122;2022-09-19T07:20:49;100821.31;;;24.06
67599;BMP280;62026;39.230;9.122;2022-09-19T07:23:18;100816.22;;;24.18
67599;BMP280;62026;39.230;9.122;2022-09-19T07:26:14;100832.88;;;24.33
67599;BMP280;62026;39.230;9.122;2022-09-19T07:28:40;100829.78;;;24.62
67599;BMP280;62026;39.230;9.122;2022-09-19T07:31:08;100839.38;;;24.91
67599;BMP280;62026;39.230;9.122;2022-09-19T07:33:39;100836.41;;;24.79
67599;BMP280;62026;39.230;9.122;2022-09-19T07:36:06;100827.94;;;24.71
67599;BMP280;62026;39.230;9.122;2022-09-19T07:38:33;100852.38;;;25.11
67599;BMP280;62026;39.230;9.122;2022-09-19T07:41:01;100846.53;;;25.48
67599;BMP280;62026;39.230;9.122;2022-09-19T07:43:32;100842.72;;;25.49
67599;BMP280;62026;39.230;9.122;2022-09-19T07:46:27;100843.97;;;25.43
67599;BMP280;62026;39.230;9.122;2022-09-19T07:49:12;100847.59;;;25.70
67599;BMP280;62026;39.230;9.122;2022-09-19T07:52:13;100847.50;;;25.52
67599;BMP280;62026;39.230;9.122;2022-09-19T07:54:40;100838.56;;;25.43
67599;BMP280;62026;39.230;9.122;2022-09-19T07:57:06;100844.75;;;25.44
67599;BMP280;62026;39.230;9.122;2022-09-19T07:59:32;100846.97;;;25.42
67599;BMP280;62026;39.230;9.122;2022-09-19T08:02:00;100850.31;;;25.39
67599;BMP280;62026;39.230;9.122;2022-09-19T08:04:36;100846.91;;;25.55
67599;BMP280;62026;39.230;9.122;2022-09-19T08:07:04;100852.78;;;25.57
67599;BMP280;62026;39.230;9.122;2022-09-19T08:09:31;100856.53;;;25.79
67599;BMP280;62026;39.230;9.122;2022-09-19T08:12:06;100851.91;;;25.79
67599;BMP280;62026;39.230;9.122;2022-09-19T08:14:40;100857.88;;;25.68
67599;BMP280;62026;39.230;9.122;2022-09-19T08:17:07;100852.91;;;25.92
67599;BMP280;62026;39.230;9.122;2022-09-19T08:19:34;100860.78;;;25.71
67599;BMP280;62026;39.230;9.122;2022-09-19T08:22:00;100864.78;;;25.74
67599;BMP280;62026;39.230;9.122;2022-09-19T08:24:33;100861.22;;;25.65
67599;BMP280;62026;39.230;9.122;2022-09-19T08:27:05;100877.31;;;26.09
67599;BMP280;62026;39.230;9.122;2022-09-19T08:29:31;100873.69;;;26.22
67599;BMP280;62026;39.230;9.122;2022-09-19T08:32:07;100864.63;;;26.53
67599;BMP280;62026;39.230;9.122;2022-09-19T08:34:33;100864.91;;;26.43
67599;BMP280;62026;39.230;9.122;2022-09-19T08:37:00;100863.00;;;26.52
67599;BMP280;62026;39.230;9.122;2022-09-19T08:39:29;100866.50;;;26.78
67599;BMP280;62026;39.230;9.122;2022-09-19T08:47:22;100863.25;;;27.10
67599;BMP280;62026;39.230;9.122;2022-09-19T08:52:36;100870.91;;;27.08
67599;BMP280;62026;39.230;9.122;2022-09-19T08:55:22;100865.66;;;27.03
67599;BMP280;62026;39.230;9.122;2022-09-19T08:57:56;100855.94;;;27.02
67599;BMP280;62026;39.230;9.122;2022-09-19T09:00:41;100854.84;;;26.86
67599;BMP280;62026;39.230;9.122;2022-09-19T09:03:29;100869.50;;;26.94
67599;BMP280;62026;39.230;9.122;2022-09-19T09:22:15;100866.91;;;27.23
67599;BMP280;62026;39.230;9.122;2022-09-19T09:25:04;100853.97;;;27.29
67599;BMP280;62026;39.230;9.122;2022-09-19T09:30:26;100824.09;;;27.58
67599;BMP280;62026;39.230;9.122;2022-09-19T09:33:32;100843.78;;;27.84
67599;BMP280;62026;39.230;9.122;2022-09-19T09:36:13;100836.50;;;27.97
67599;BMP280;62026;39.230;9.122;2022-09-19T09:38:45;100845.09;;;27.99
67599;BMP280;62026;39.230;9.122;2022-09-19T09:49:41;100842.81;;;28.63
67599;BMP280;62026;39.230;9.122;2022-09-19T09:52:32;100834.22;;;28.73
67599;BMP280;62026;39.230;9.122;2022-09-19T09:55:25;100832.28;;;28.29
67599;BMP280;62026;39.230;9.122;2022-09-19T09:58:28;100827.44;;;28.67
67599;BMP280;62026;39.230;9.122;2022-09-19T10:04:32;100829.69;;;28.65
67599;BMP280;62026;39.230;9.122;2022-09-19T10:10:13;100813.22;;;29.07
67599;BMP280;62026;39.230;9.122;2022-09-19T10:15:23;100809.34;;;28.95
67599;BMP280;62026;39.230;9.122;2022-09-19T10:18:03;100806.34;;;28.64
67599;BMP280;62026;39.230;9.122;2022-09-19T10:20:46;100807.34;;;28.60
67599;BMP280;62026;39.230;9.122;2022-09-19T10:23:28;100791.63;;;28.65
67599;BMP280;62026;39.230;9.122;2022-09-19T10:26:01;100798.94;;;29.22
67599;BMP280;62026;39.230;9.122;2022-09-19T10:28:58;100805.00;;;28.58
67599;BMP280;62026;39.230;9.122;2022-09-19T10:31:39;100802.94;;;28.55
67599;BMP280;62026;39.230;9.122;2022-09-19T10:34:28;100797.53;;;28.34
67599;BMP280;62026;39.230;9.122;2022-09-19T10:37:00;100792.91;;;28.35
67599;BMP280;62026;39.230;9.122;2022-09-19T10:39:30;100793.28;;;28.58
67599;BMP280;62026;39.230;9.122;2022-09-19T10:41:56;100790.72;;;28.61
67599;BMP280;62026;39.230;9.122;2022-09-19T10:44:24;100778.03;;;28.53
67599;BMP280;62026;39.230;9.122;2022-09-19T10:47:01;100786.56;;;28.10
67599;BMP280;62026;39.230;9.122;2022-09-19T10:49:43;100786.13;;;28.41
67599;BMP280;62026;39.230;9.122;2022-09-19T10:52:36;100792.25;;;28.38
67599;BMP280;62026;39.230;9.122;2022-09-19T10:55:05;100787.09;;;28.03
67599;BMP280;62026;39.230;9.122;2022-09-19T10:57:43;100788.31;;;27.94
67599;BMP280;62026;39.230;9.122;2022-09-19T11:00:28;100789.34;;;27.81
67599;BMP280;62026;39.230;9.122;2022-09-19T11:03:20;100784.06;;;27.84
67599;BMP280;62026;39.230;9.122;2022-09-19T11:08:41;100780.75;;;27.79
67599;BMP280;62026;39.230;9.122;2022-09-19T11:11:33;100785.47;;;27.90
67599;BMP280;62026;39.230;9.122;2022-09-19T11:14:33;100769.34;;;27.64
67599;BMP280;62026;39.230;9.122;2022-09-19T11:20:29;100785.66;;;27.85
67599;BMP280;62026;39.230;9.122;2022-09-19T11:23:23;100785.47;;;27.90
67599;BMP280;62026;39.230;9.122;2022-09-19T11:46:50;100778.28;;;27.65
67599;BMP280;62026;39.230;9.122;2022-09-19T11:49:37;100762.56;;;27.50
67599;BMP280;62026;39.230;9.122;2022-09-19T11:52:31;100771.00;;;27.57
67599;BMP280;62026;39.230;9.122;2022-09-19T11:55:19;100769.00;;;27.66
67599;BMP280;62026;39.230;9.122;2022-09-19T11:58:15;100760.44;;;27.64
67599;BMP280;62026;39.230;9.122;2022-09-19T12:09:24;100755.31;;;27.83
67599;BMP280;62026;39.230;9.122;2022-09-19T12:11:57;100753.00;;;27.73
67599;BMP280;62026;39.230;9.122;2022-09-19T12:14:41;100749.75;;;27.59
67599;BMP280;62026;39.230;9.122;2022-09-19T12:23:13;100734.66;;;27.29
67599;BMP280;62026;39.230;9.122;2022-09-19T12:26:00;100734.47;;;27.25
67599;BMP280;62026;39.230;9.122;2022-09-19T12:28:35;100721.88;;;27.20
67599;BMP280;62026;39.230;9.122;2022-09-19T12:31:08;100714.91;;;27.19
67599;BMP280;62026;39.230;9.122;2022-09-19T12:33:38;100722.03;;;27.24
67599;BMP280;62026;39.230;9.122;2022-09-19T12:36:20;100715.81;;;27.23
67599;BMP280;62026;39.230;9.122;2022-09-19T12:46:59;100679.34;;;27.21
67599;BMP280;62026;39.230;9.122;2022-09-19T12:55:18;100693.75;;;27.34
67599;BMP280;62026;39.230;9.122;2022-09-19T12:57:54;100693.59;;;27.39
67599;BMP280;62026;39.230;9.122;2022-09-19T13:00:22;100678.16;;;27.31
67599;BMP280;62026;39.230;9.122;2022-09-19T13:05:32;100671.53;;;27.19
67599;BMP280;62026;39.230;9.122;2022-09-19T13:08:06;100684.09;;;27.24
67599;BMP280;62026;39.230;9.122;2022-09-19T13:10:44;100672.63;;;27.18
67599;BMP280;62026;39.230;9.122;2022-09-19T13:13:14;100674.50;;;27.27
67599;BMP280;62026;39.230;9.122;2022-09-19T13:15:53;100666.56;;;27.21
67599;BMP280;62026;39.230;9.122;2022-09-19T13:18:22;100660.03;;;27.22
67599;BMP280;62026;39.230;9.122;2022-09-19T13:21:15;100655.78;;;27.34
67599;BMP280;62026;39.230;9.122;2022-09-19T13:24:00;100651.84;;;27.31
67599;BMP280;62026;39.230;9.122;2022-09-19T13:26:28;100654.22;;;27.33
67599;BMP280;62026;39.230;9.122;2022-09-19T13:32:03;100638.78;;;27.66
67599;BMP280;62026;39.230;9.122;2022-09-19T13:37:45;100650.97;;;27.60
67599;BMP280;62026;39.230;9.122;2022-09-19T13:42:40;100638.59;;;27.50
67599;BMP280;62026;39.230;9.122;2022-09-19T13:48:34;100643.28;;;27.41
67599;BMP280;62026;39.230;9.122;2022-09-19T13:51:20;100629.91;;;27.36
67599;BMP280;62026;39.230;9.122;2022-09-19T13:57:03;100635.47;;;27.40
67599;BMP280;62026;39.230;9.122;2022-09-19T13:59:31;100629.88;;;27.45
67599;BMP280;62026;39.230;9.122;2022-09-19T14:02:04;100646.41;;;27.52
67599;BMP280;62026;39.230;9.122;2022-09-19T14:04:40;100639.63;;;27.58
67599;BMP280;62026;39.230;9.122;2022-09-19T14:07:42;100634.13;;;27.54
67599;BMP280;62026;39.230;9.122;2022-09-19T14:20:58;100635.75;;;28.00
67599;BMP280;62026;39.230;9.122;2022-09-19T14:23:39;100626.50;;;27.81
67599;BMP280;62026;39.230;9.122;2022-09-19T14:31:28;100616.59;;;27.85
67599;BMP280;62026;39.230;9.122;2022-09-19T14:37:06;100609.28;;;27.44
67599;BMP280;62026;39.230;9.122;2022-09-19T14:39:53;100624.03;;;27.55
67599;BMP280;62026;39.230;9.122;2022-09-19T14:47:33;100618.38;;;27.48
67599;BMP280;62026;39.230;9.122;2022-09-19T14:50:22;100631.44;;;27.66
67599;BMP280;62026;39.230;9.122;2022-09-19T14:52:59;100628.94;;;27.61
67599;BMP280;62026;39.230;9.122;2022-09-19T14:55:29;100618.97;;;27.53
67599;BMP280;62026;39.230;9.122;2022-09-19T14:57:55;100635.56;;;27.52
67599;BMP280;62026;39.230;9.122;2022-09-19T15:00:28;100637.59;;;27.55
67599;BMP280;62026;39.230;9.122;2022-09-19T15:02:55;100632.91;;;27.64
67599;BMP280;62026;39.230;9.122;2022-09-19T15:05:27;100642.03;;;27.59
67599;BMP280;62026;39.230;9.122;2022-09-19T15:07:54;100640.69;;;27.65
67599;BMP280;62026;39.230;9.122;2022-09-19T15:12:47;100648.44;;;27.55
67599;BMP280;62026;39.230;9.122;2022-09-19T15:15:15;100639.47;;;27.63
67599;BMP280;62026;39.230;9.122;2022-09-19T15:17:41;100637.88;;;27.62
67599;BMP280;62026;39.230;9.122;2022-09-19T15:22:55;100621.66;;;27.53
67599;BMP280;62026;39.230;9.122;2022-09-19T15:25:27;100640.78;;;27.57
67599;BMP280;62026;39.230;9.122;2022-09-19T15:27:56;100631.03;;;27.56
67599;BMP280;62026;39.230;9.122;2022-09-19T15:30:41;100639.38;;;27.51
67599;BMP280;62026;39.230;9.122;2022-09-19T15:33:12;100634.03;;;27.42
67599;BMP280;62026;39.230;9.122;2022-09-19T15:35:42;100634.09;;;27.34
67599;BMP280;62026;39.230;9.122;2022-09-19T15:38:19;100621.31;;;27.34
67599;BMP280;62026;39.230;9.122;2022-09-19T15:40:47;100634.88;;;27.34
67599;BMP280;62026;39.230;9.122;2022-09-19T15:43:14;100627.88;;;27.33
67599;BMP280;62026;39.230;9.122;2022-09-19T15:45:43;100626.31;;;27.32
67599;BMP280;62026;39.230;9.122;2022-09-19T15:48:24;100622.34;;;27.30
67599;BMP280;62026;39.230;9.122;2022-09-19T15:51:03;100624.63;;;27.40
67599;BMP280;62026;39.230;9.122;2022-09-19T15:53:37;100634.09;;;27.34
67599;BMP280;62026;39.230;9.122;2022-09-19T15:56:07;100624.72;;;27.31
67599;BMP280;62026;39.230;9.122;2022-09-19T15:58:39;100630.53;;;27.21
67599;BMP280;62026;39.230;9.122;2022-09-19T16:01:13;100624.19;;;27.17
67599;BMP280;62026;39.230;9.122;2022-09-19T16:03:46;100620.34;;;27.18
67599;BMP280;62026;39.230;9.122;2022-09-19T16:06:36;100632.91;;;27.22
67599;BMP280;62026;39.230;9.122;2022-09-19T16:09:38;100613.84;;;27.10
67599;BMP280;62026;39.230;9.122;2022-09-19T16:15:28;100639.19;;;27.14
67599;BMP280;62026;39.230;9.122;2022-09-19T16:23:02;100622.81;;;27.02
67599;BMP280;62026;39.230;9.122;2022-09-19T16:28:11;100633.16;;;27.09
67599;BMP280;62026;39.230;9.122;2022-09-19T16:30:53;100610.66;;;26.88
67599;BMP280;62026;39.230;9.122;2022-09-19T16:33:20;100630.03;;;26.98
67599;BMP280;62026;39.230;9.122;2022-09-19T16:35:51;100628.75;;;26.96
67599;BMP280;62026;39.230;9.122;2022-09-19T16:38:24;100624.34;;;26.91
67599;BMP280;62026;39.230;9.122;2022-09-19T16:40:56;100619.66;;;27.00
67599;BMP280;62026;39.230;9.122;2022-09-19T16:46:02;100632.03;;;26.80
67599;BMP280;62026;39.230;9.122;2022-09-19T16:48:30;100634.28;;;26.78
67599;BMP280;62026;39.230;9.122;2022-09-19T16:50:56;100626.81;;;26.75
67599;BMP280;62026;39.230;9.122;2022-09-19T16:53:22;100638.06;;;26.86
67599;BMP280;62026;39.230;9.122;2022-09-19T16:55:48;100628.38;;;26.85
67599;BMP280;62026;39.230;9.122;2022-09-19T16:58:16;100645.69;;;26.93
67599;BMP280;62026;39.230;9.122;2022-09-19T17:00:43;100633.25;;;26.92
67599;BMP280;62026;39.230;9.122;2022-09-19T17:03:12;100627.22;;;26.86
67599;BMP280;62026;39.230;9.122;2022-09-19T17:05:40;100640.09;;;26.89
67599;BMP280;62026;39.230;9.122;2022-09-19T17:08:07;100640.78;;;26.86
67599;BMP280;62026;39.230;9.122;2022-09-19T17:10:33;100638.72;;;26.83
67599;BMP280;62026;39.230;9.122;2022-09-19T17:13:00;100645.13;;;26.78
67599;BMP280;62026;39.230;9.122;2022-09-19T17:16:00;100643.84;;;26.85
67599;BMP280;62026;39.230;9.122;2022-09-19T17:18:27;100645.59;;;26.80
67599;BMP280;62026;39.230;9.122;2022-09-19T17:20:56;100651.31;;;26.79
67599;BMP280;62026;39.230;9.122;2022-09-19T17:23:22;100617.81;;;26.54
67599;BMP280;62026;39.230;9.122;2022-09-19T17:25:51;100638.47;;;26.67
67599;BMP280;62026;39.230;9.122;2022-09-19T17:28:23;100635.47;;;26.69
67599;BMP280;62026;39.230;9.122;2022-09-19T17:30:51;100641.50;;;26.66
67599;BMP280;62026;39.230;9.122;2022-09-19T17:33:22;100647.06;;;26.69
67599;BMP280;62026;39.230;9.122;2022-09-19T17:35:49;100650.75;;;26.65
67599;BMP280;62026;39.230;9.122;2022-09-19T17:38:15;100643.09;;;26.67
67599;BMP280;62026;39.230;9.122;2022-09-19T17:40:43;100651.56;;;26.65
67599;BMP280;62026;39.230;9.122;2022-09-19T17:43:13;100654.13;;;26.62
67599;BMP280;62026;39.230;9.122;2022-09-19T17:45:42;100667.81;;;26.65
67599;BMP280;62026;39.230;9.122;2022-09-19T17:48:10;100653.03;;;26.54